Ackerly, Texas
Current Conditions -  °F | °C
As of 6:15 AM on Friday 19 Dec 2014 (Local Time) from KBPG Reporting Station
Overcast Overcast  
Wind Chill: 36°   Ceiling: 400
Heat Index: 41°   Visibility: 7mi
Dew Point: 37°   Wind: 7mph
Humidity: 87%   Direction: 50°NE
Pressure: 30.16"   Gusts: NA
Location:  32.53°N, 101.72°W
Report Text: KBPG 191215Z AUTO 05006KT 7SM OVC004 05/03 A3016 RMK AO2 T00500030
Loading
Personal Weather Stations






























Interactive Weather Map New forecast layout! Learn more

10-Day Weather Forecast

Advertisements
Track Severe Weather on mobile